sensor_id;sensor_type;location;lat;lon;timestamp;P1;durP1;ratioP1;P2;durP2;ratioP2
5539;SDS011;2792;52.452;9.752;2024-01-15T00:01:40;22.80;;;11.73;;
5539;SDS011;2792;52.452;9.752;2024-01-15T00:04:08;22.87;;;10.90;;
5539;SDS011;2792;52.452;9.752;2024-01-15T00:06:34;22.63;;;11.60;;
5539;SDS011;2792;52.452;9.752;2024-01-15T00:09:01;20.30;;;11.07;;
5539;SDS011;2792;52.452;9.752;2024-01-15T00:11:28;21.37;;;11.17;;
5539;SDS011;2792;52.452;9.752;2024-01-15T00:13:54;19.03;;;10.50;;
5539;SDS011;2792;52.452;9.752;2024-01-15T00:16:22;16.93;;;10.40;;
5539;SDS011;2792;52.452;9.752;2024-01-15T00:18:49;20.27;;;10.30;;
5539;SDS011;2792;52.452;9.752;2024-01-15T00:21:15;14.60;;;8.90;;
5539;SDS011;2792;52.452;9.752;2024-01-15T00:23:42;20.07;;;10.63;;
5539;SDS011;2792;52.452;9.752;2024-01-15T00:26:09;15.80;;;8.93;;
5539;SDS011;2792;52.452;9.752;2024-01-15T00:28:36;14.27;;;8.43;;
5539;SDS011;2792;52.452;9.752;2024-01-15T00:31:02;16.80;;;8.17;;
5539;SDS011;2792;52.452;9.752;2024-01-15T00:33:30;17.23;;;8.20;;
5539;SDS011;2792;52.452;9.752;2024-01-15T00:35:57;14.43;;;7.57;;
5539;SDS011;2792;52.452;9.752;2024-01-15T00:38:23;13.73;;;7.70;;
5539;SDS011;2792;52.452;9.752;2024-01-15T00:40:50;16.20;;;6.33;;
5539;SDS011;2792;52.452;9.752;2024-01-15T00:43:17;10.30;;;6.33;;
5539;SDS011;2792;52.452;9.752;2024-01-15T00:45:44;12.33;;;6.80;;
5539;SDS011;2792;52.452;9.752;2024-01-15T00:48:11;15.20;;;7.50;;
5539;SDS011;2792;52.452;9.752;2024-01-15T00:50:39;11.53;;;6.80;;
5539;SDS011;2792;52.452;9.752;2024-01-15T00:53:05;10.70;;;7.10;;
5539;SDS011;2792;52.452;9.752;2024-01-15T00:55:32;14.50;;;5.93;;
5539;SDS011;2792;52.452;9.752;2024-01-15T00:57:58;10.27;;;6.67;;
5539;SDS011;2792;52.452;9.752;2024-01-15T01:00:25;11.30;;;6.20;;
5539;SDS011;2792;52.452;9.752;2024-01-15T01:02:51;12.00;;;6.57;;
5539;SDS011;2792;52.452;9.752;2024-01-15T01:05:18;8.90;;;5.57;;
5539;SDS011;2792;52.452;9.752;2024-01-15T01:07:46;12.37;;;6.97;;
5539;SDS011;2792;52.452;9.752;2024-01-15T01:10:13;8.70;;;5.60;;
5539;SDS011;2792;52.452;9.752;2024-01-15T01:12:39;10.83;;;6.47;;
5539;SDS011;2792;52.452;9.752;2024-01-15T01:15:06;11.97;;;6.07;;
5539;SDS011;2792;52.452;9.752;2024-01-15T01:17:33;9.13;;;5.20;;
5539;SDS011;2792;52.452;9.752;2024-01-15T01:19:59;9.67;;;5.10;;
5539;SDS011;2792;52.452;9.752;2024-01-15T01:22:29;8.30;;;5.73;;
5539;SDS011;2792;52.452;9.752;2024-01-15T01:24:57;9.93;;;5.10;;
5539;SDS011;2792;52.452;9.752;2024-01-15T01:27:23;10.17;;;4.93;;
5539;SDS011;2792;52.452;9.752;2024-01-15T01:29:49;7.80;;;4.10;;
5539;SDS011;2792;52.452;9.752;2024-01-15T01:32:16;6.30;;;4.00;;
5539;SDS011;2792;52.452;9.752;2024-01-15T01:34:43;6.90;;;4.60;;
5539;SDS011;2792;52.452;9.752;2024-01-15T01:37:09;6.20;;;3.83;;
5539;SDS011;2792;52.452;9.752;2024-01-15T01:39:37;4.50;;;3.20;;
5539;SDS011;2792;52.452;9.752;2024-01-15T01:42:06;6.30;;;3.50;;
5539;SDS011;2792;52.452;9.752;2024-01-15T01:44:32;8.90;;;3.63;;
5539;SDS011;2792;52.452;9.752;2024-01-15T01:46:59;6.80;;;3.90;;
5539;SDS011;2792;52.452;9.752;2024-01-15T01:49:26;6.97;;;3.00;;
5539;SDS011;2792;52.452;9.752;2024-01-15T01:51:52;11.60;;;3.33;;
5539;SDS011;2792;52.452;9.752;2024-01-15T01:54:19;11.17;;;3.40;;
5539;SDS011;2792;52.452;9.752;2024-01-15T01:56:47;2.60;;;2.30;;
5539;SDS011;2792;52.452;9.752;2024-01-15T01:59:15;10.77;;;2.90;;
5539;SDS011;2792;52.452;9.752;2024-01-15T02:01:41;4.03;;;2.40;;
5539;SDS011;2792;52.452;9.752;2024-01-15T02:04:09;3.57;;;2.20;;
5539;SDS011;2792;52.452;9.752;2024-01-15T02:06:36;12.27;;;2.80;;
5539;SDS011;2792;52.452;9.752;2024-01-15T02:09:02;4.63;;;2.37;;
5539;SDS011;2792;52.452;9.752;2024-01-15T02:11:30;4.83;;;2.53;;
5539;SDS011;2792;52.452;9.752;2024-01-15T02:13:57;6.10;;;2.50;;
5539;SDS011;2792;52.452;9.752;2024-01-15T02:16:24;4.03;;;2.40;;
5539;SDS011;2792;52.452;9.752;2024-01-15T02:18:51;5.30;;;2.20;;
5539;SDS011;2792;52.452;9.752;2024-01-15T02:21:17;5.70;;;2.13;;
5539;SDS011;2792;52.452;9.752;2024-01-15T02:23:45;5.37;;;2.70;;
5539;SDS011;2792;52.452;9.752;2024-01-15T02:26:12;6.73;;;2.40;;
5539;SDS011;2792;52.452;9.752;2024-01-15T02:28:38;9.30;;;2.33;;
5539;SDS011;2792;52.452;9.752;2024-01-15T02:31:06;8.33;;;2.27;;
5539;SDS011;2792;52.452;9.752;2024-01-15T02:33:33;3.13;;;1.70;;
5539;SDS011;2792;52.452;9.752;2024-01-15T02:35:59;7.03;;;2.30;;
5539;SDS011;2792;52.452;9.752;2024-01-15T02:38:26;3.33;;;1.60;;
5539;SDS011;2792;52.452;9.752;2024-01-15T02:40:53;5.20;;;1.97;;
5539;SDS011;2792;52.452;9.752;2024-01-15T02:43:20;4.73;;;2.00;;
5539;SDS011;2792;52.452;9.752;2024-01-15T02:45:46;5.23;;;2.17;;
5539;SDS011;2792;52.452;9.752;2024-01-15T02:48:13;8.13;;;2.07;;
5539;SDS011;2792;52.452;9.752;2024-01-15T02:50:39;7.00;;;1.90;;
5539;SDS011;2792;52.452;9.752;2024-01-15T02:53:06;5.03;;;2.13;;
5539;SDS011;2792;52.452;9.752;2024-01-15T02:55:32;8.80;;;1.83;;
5539;SDS011;2792;52.452;9.752;2024-01-15T02:58:00;3.87;;;1.67;;
5539;SDS011;2792;52.452;9.752;2024-01-15T03:00:27;5.13;;;1.50;;
5539;SDS011;2792;52.452;9.752;2024-01-15T03:02:54;3.53;;;1.43;;
5539;SDS011;2792;52.452;9.752;2024-01-15T03:05:21;7.00;;;1.77;;
5539;SDS011;2792;52.452;9.752;2024-01-15T03:07:47;8.50;;;1.70;;
5539;SDS011;2792;52.452;9.752;2024-01-15T03:10:14;6.77;;;2.10;;
5539;SDS011;2792;52.452;9.752;2024-01-15T03:12:40;12.33;;;1.57;;
5539;SDS011;2792;52.452;9.752;2024-01-15T03:15:08;9.50;;;1.70;;
5539;SDS011;2792;52.452;9.752;2024-01-15T03:17:35;7.43;;;2.00;;
5539;SDS011;2792;52.452;9.752;2024-01-15T03:20:02;5.77;;;2.03;;
5539;SDS011;2792;52.452;9.752;2024-01-15T03:22:28;6.00;;;1.60;;
5539;SDS011;2792;52.452;9.752;2024-01-15T03:24:55;4.20;;;1.70;;
5539;SDS011;2792;52.452;9.752;2024-01-15T03:27:21;2.47;;;1.30;;
5539;SDS011;2792;52.452;9.752;2024-01-15T03:29:48;3.13;;;1.40;;
5539;SDS011;2792;52.452;9.752;2024-01-15T03:32:16;5.97;;;1.80;;
5539;SDS011;2792;52.452;9.752;2024-01-15T03:34:42;3.50;;;1.47;;
5539;SDS011;2792;52.452;9.752;2024-01-15T03:37:09;11.53;;;1.20;;
5539;SDS011;2792;52.452;9.752;2024-01-15T03:39:35;2.50;;;1.37;;
5539;SDS011;2792;52.452;9.752;2024-01-15T03:42:02;4.97;;;1.27;;
5539;SDS011;2792;52.452;9.752;2024-01-15T03:44:29;7.57;;;1.90;;
5539;SDS011;2792;52.452;9.752;2024-01-15T03:46:55;2.87;;;1.03;;
5539;SDS011;2792;52.452;9.752;2024-01-15T03:49:24;3.60;;;1.53;;
5539;SDS011;2792;52.452;9.752;2024-01-15T03:51:50;5.60;;;2.00;;
5539;SDS011;2792;52.452;9.752;2024-01-15T03:54:17;6.53;;;1.60;;
5539;SDS011;2792;52.452;9.752;2024-01-15T03:56:43;1.27;;;1.00;;
5539;SDS011;2792;52.452;9.752;2024-01-15T03:59:10;7.03;;;1.57;;
5539;SDS011;2792;52.452;9.752;2024-01-15T04:01:36;11.90;;;1.63;;
5539;SDS011;2792;52.452;9.752;2024-01-15T04:04:03;2.20;;;1.20;;
5539;SDS011;2792;52.452;9.752;2024-01-15T04:06:31;3.83;;;1.63;;
5539;SDS011;2792;52.452;9.752;2024-01-15T04:08:58;6.97;;;2.57;;
5539;SDS011;2792;52.452;9.752;2024-01-15T04:11:25;6.77;;;1.50;;
5539;SDS011;2792;52.452;9.752;2024-01-15T04:13:52;7.07;;;1.60;;
5539;SDS011;2792;52.452;9.752;2024-01-15T04:16:18;4.17;;;1.30;;
5539;SDS011;2792;52.452;9.752;2024-01-15T04:18:45;8.70;;;1.60;;
5539;SDS011;2792;52.452;9.752;2024-01-15T04:21:11;6.53;;;1.90;;
5539;SDS011;2792;52.452;9.752;2024-01-15T04:23:40;5.03;;;2.60;;
5539;SDS011;2792;52.452;9.752;2024-01-15T04:26:06;7.20;;;1.67;;
5539;SDS011;2792;52.452;9.752;2024-01-15T04:28:33;6.57;;;2.10;;
5539;SDS011;2792;52.452;9.752;2024-01-15T04:30:59;6.03;;;1.70;;
5539;SDS011;2792;52.452;9.752;2024-01-15T04:33:25;2.30;;;1.40;;
5539;SDS011;2792;52.452;9.752;2024-01-15T04:35:52;3.60;;;1.67;;
5539;SDS011;2792;52.452;9.752;2024-01-15T04:38:18;5.90;;;1.77;;
5539;SDS011;2792;52.452;9.752;2024-01-15T04:40:46;3.00;;;1.40;;
5539;SDS011;2792;52.452;9.752;2024-01-15T04:43:13;4.30;;;1.63;;
5539;SDS011;2792;52.452;9.752;2024-01-15T04:45:39;5.97;;;1.90;;
5539;SDS011;2792;52.452;9.752;2024-01-15T04:48:06;4.73;;;1.40;;
5539;SDS011;2792;52.452;9.752;2024-01-15T04:50:32;4.87;;;1.40;;
5539;SDS011;2792;52.452;9.752;2024-01-15T04:52:59;6.13;;;2.03;;
5539;SDS011;2792;52.452;9.752;2024-01-15T04:55:25;4.97;;;1.43;;
5539;SDS011;2792;52.452;9.752;2024-01-15T04:57:53;3.20;;;1.33;;
5539;SDS011;2792;52.452;9.752;2024-01-15T05:00:20;2.77;;;1.57;;
5539;SDS011;2792;52.452;9.752;2024-01-15T05:02:46;4.43;;;1.80;;
5539;SDS011;2792;52.452;9.752;2024-01-15T05:05:13;7.97;;;1.83;;
5539;SDS011;2792;52.452;9.752;2024-01-15T05:07:39;4.60;;;1.17;;
5539;SDS011;2792;52.452;9.752;2024-01-15T05:10:06;6.53;;;1.47;;
5539;SDS011;2792;52.452;9.752;2024-01-15T05:12:33;4.17;;;1.53;;
5539;SDS011;2792;52.452;9.752;2024-01-15T05:15:01;9.43;;;1.60;;
5539;SDS011;2792;52.452;9.752;2024-01-15T05:17:28;12.73;;;2.20;;
5539;SDS011;2792;52.452;9.752;2024-01-15T05:19:54;6.40;;;1.70;;
5539;SDS011;2792;52.452;9.752;2024-01-15T05:22:21;8.37;;;2.40;;
5539;SDS011;2792;52.452;9.752;2024-01-15T05:24:49;10.87;;;1.97;;
5539;SDS011;2792;52.452;9.752;2024-01-15T05:27:16;1.70;;;1.30;;
5539;SDS011;2792;52.452;9.752;2024-01-15T05:29:43;5.87;;;1.63;;
5539;SDS011;2792;52.452;9.752;2024-01-15T05:32:11;8.63;;;2.00;;
5539;SDS011;2792;52.452;9.752;2024-01-15T05:34:37;3.60;;;1.50;;
5539;SDS011;2792;52.452;9.752;2024-01-15T05:37:04;4.20;;;1.70;;
5539;SDS011;2792;52.452;9.752;2024-01-15T05:39:30;5.20;;;1.53;;
5539;SDS011;2792;52.452;9.752;2024-01-15T05:41:58;8.00;;;1.80;;
5539;SDS011;2792;52.452;9.752;2024-01-15T05:44:24;3.67;;;1.07;;
5539;SDS011;2792;52.452;9.752;2024-01-15T05:46:51;3.67;;;1.07;;
5539;SDS011;2792;52.452;9.752;2024-01-15T05:49:20;4.33;;;1.60;;
5539;SDS011;2792;52.452;9.752;2024-01-15T05:51:46;4.10;;;1.60;;
5539;SDS011;2792;52.452;9.752;2024-01-15T05:54:13;3.83;;;1.10;;
5539;SDS011;2792;52.452;9.752;2024-01-15T05:56:39;3.97;;;0.90;;
5539;SDS011;2792;52.452;9.752;2024-01-15T05:59:06;8.80;;;2.23;;
5539;SDS011;2792;52.452;9.752;2024-01-15T06:01:32;10.10;;;1.37;;
5539;SDS011;2792;52.452;9.752;2024-01-15T06:03:59;3.73;;;1.70;;
5539;SDS011;2792;52.452;9.752;2024-01-15T06:06:27;2.13;;;1.20;;
5539;SDS011;2792;52.452;9.752;2024-01-15T06:08:53;4.57;;;1.27;;
5539;SDS011;2792;52.452;9.752;2024-01-15T06:11:20;5.83;;;1.80;;
5539;SDS011;2792;52.452;9.752;2024-01-15T06:13:46;4.80;;;1.43;;
5539;SDS011;2792;52.452;9.752;2024-01-15T06:16:13;6.93;;;1.80;;
5539;SDS011;2792;52.452;9.752;2024-01-15T06:18:40;3.00;;;1.60;;
5539;SDS011;2792;52.452;9.752;2024-01-15T06:21:07;5.67;;;1.83;;
5539;SDS011;2792;52.452;9.752;2024-01-15T06:23:36;5.60;;;1.47;;
5539;SDS011;2792;52.452;9.752;2024-01-15T06:26:03;3.03;;;1.47;;
5539;SDS011;2792;52.452;9.752;2024-01-15T06:28:30;4.90;;;1.47;;
5539;SDS011;2792;52.452;9.752;2024-01-15T06:30:56;6.67;;;2.47;;
5539;SDS011;2792;52.452;9.752;2024-01-15T06:33:23;10.03;;;1.60;;
5539;SDS011;2792;52.452;9.752;2024-01-15T06:35:50;8.93;;;1.35;;
5539;SDS011;2792;52.452;9.752;2024-01-15T06:38:16;6.57;;;1.53;;
5539;SDS011;2792;52.452;9.752;2024-01-15T06:40:44;9.57;;;2.00;;
5539;SDS011;2792;52.452;9.752;2024-01-15T06:43:13;6.63;;;2.37;;
5539;SDS011;2792;52.452;9.752;2024-01-15T06:45:40;9.20;;;2.10;;
5539;SDS011;2792;52.452;9.752;2024-01-15T06:48:06;7.10;;;1.50;;
5539;SDS011;2792;52.452;9.752;2024-01-15T06:50:33;6.93;;;2.30;;
5539;SDS011;2792;52.452;9.752;2024-01-15T06:52:59;4.93;;;1.77;;
5539;SDS011;2792;52.452;9.752;2024-01-15T06:55:26;11.40;;;1.90;;
5539;SDS011;2792;52.452;9.752;2024-01-15T06:57:54;3.07;;;1.50;;
5539;SDS011;2792;52.452;9.752;2024-01-15T07:00:20;4.20;;;1.57;;
5539;SDS011;2792;52.452;9.752;2024-01-15T07:02:47;5.13;;;1.63;;
5539;SDS011;2792;52.452;9.752;2024-01-15T07:05:13;8.97;;;1.53;;
5539;SDS011;2792;52.452;9.752;2024-01-15T07:07:40;4.07;;;1.80;;
5539;SDS011;2792;52.452;9.752;2024-01-15T07:10:07;8.97;;;1.83;;
5539;SDS011;2792;52.452;9.752;2024-01-15T07:12:34;9.87;;;1.80;;
5539;SDS011;2792;52.452;9.752;2024-01-15T07:15:02;3.03;;;1.47;;
5539;SDS011;2792;52.452;9.752;2024-01-15T07:17:29;4.50;;;1.40;;
5539;SDS011;2792;52.452;9.752;2024-01-15T07:19:56;5.37;;;2.07;;
5539;SDS011;2792;52.452;9.752;2024-01-15T07:22:22;14.13;;;1.90;;
5539;SDS011;2792;52.452;9.752;2024-01-15T07:24:49;7.13;;;1.60;;
5539;SDS011;2792;52.452;9.752;2024-01-15T07:27:15;5.80;;;1.80;;
5539;SDS011;2792;52.452;9.752;2024-01-15T07:29:42;4.83;;;1.70;;
5539;SDS011;2792;52.452;9.752;2024-01-15T07:32:10;11.07;;;1.73;;
5539;SDS011;2792;52.452;9.752;2024-01-15T07:34:37;4.37;;;1.60;;
5539;SDS011;2792;52.452;9.752;2024-01-15T07:37:04;4.50;;;1.70;;
5539;SDS011;2792;52.452;9.752;2024-01-15T07:39:30;5.90;;;1.70;;
5539;SDS011;2792;52.452;9.752;2024-01-15T07:41:57;4.00;;;1.40;;
5539;SDS011;2792;52.452;9.752;2024-01-15T07:44:23;9.87;;;1.90;;
5539;SDS011;2792;52.452;9.752;2024-01-15T07:46:50;10.23;;;2.73;;
5539;SDS011;2792;52.452;9.752;2024-01-15T07:49:17;7.40;;;2.00;;
5539;SDS011;2792;52.452;9.752;2024-01-15T07:51:44;4.30;;;2.50;;
5539;SDS011;2792;52.452;9.752;2024-01-15T07:54:10;5.83;;;2.07;;
5539;SDS011;2792;52.452;9.752;2024-01-15T07:56:52;1.90;;;1.80;;
5539;SDS011;2792;52.452;9.752;2024-01-15T07:59:19;4.63;;;1.90;;
5539;SDS011;2792;52.452;9.752;2024-01-15T08:01:45;3.73;;;2.07;;
5539;SDS011;2792;52.452;9.752;2024-01-15T08:04:12;5.33;;;2.87;;
5539;SDS011;2792;52.452;9.752;2024-01-15T08:06:40;5.00;;;2.67;;
5539;SDS011;2792;52.452;9.752;2024-01-15T08:09:06;11.10;;;2.70;;
5539;SDS011;2792;52.452;9.752;2024-01-15T08:11:34;3.93;;;1.80;;
5539;SDS011;2792;52.452;9.752;2024-01-15T08:14:00;8.05;;;2.40;;
5539;SDS011;2792;52.452;9.752;2024-01-15T08:16:27;11.60;;;3.70;;
5539;SDS011;2792;52.452;9.752;2024-01-15T08:18:53;6.43;;;2.23;;
5539;SDS011;2792;52.452;9.752;2024-01-15T08:21:20;4.73;;;2.47;;
5539;SDS011;2792;52.452;9.752;2024-01-15T08:23:48;5.57;;;2.30;;
5539;SDS011;2792;52.452;9.752;2024-01-15T08:26:14;4.80;;;2.20;;
5539;SDS011;2792;52.452;9.752;2024-01-15T08:28:41;3.50;;;2.30;;
5539;SDS011;2792;52.452;9.752;2024-01-15T08:31:07;9.27;;;2.80;;
5539;SDS011;2792;52.452;9.752;2024-01-15T08:33:34;5.27;;;2.50;;
5539;SDS011;2792;52.452;9.752;2024-01-15T08:36:01;6.93;;;2.10;;
5539;SDS011;2792;52.452;9.752;2024-01-15T08:38:27;2.37;;;2.10;;
5539;SDS011;2792;52.452;9.752;2024-01-15T08:40:55;3.47;;;2.20;;
5539;SDS011;2792;52.452;9.752;2024-01-15T08:43:24;2.10;;;1.90;;
5539;SDS011;2792;52.452;9.752;2024-01-15T08:45:50;4.40;;;1.90;;
5539;SDS011;2792;52.452;9.752;2024-01-15T08:48:17;7.37;;;1.80;;
5539;SDS011;2792;52.452;9.752;2024-01-15T08:50:43;5.53;;;1.77;;
5539;SDS011;2792;52.452;9.752;2024-01-15T08:53:11;2.40;;;1.77;;
5539;SDS011;2792;52.452;9.752;2024-01-15T08:55:37;6.63;;;1.87;;
5539;SDS011;2792;52.452;9.752;2024-01-15T08:58:05;7.80;;;1.80;;
5539;SDS011;2792;52.452;9.752;2024-01-15T09:00:32;1.77;;;1.67;;
5539;SDS011;2792;52.452;9.752;2024-01-15T09:02:58;1.50;;;1.40;;
5539;SDS011;2792;52.452;9.752;2024-01-15T09:05:25;6.93;;;2.43;;
5539;SDS011;2792;52.452;9.752;2024-01-15T09:07:51;3.50;;;1.60;;
5539;SDS011;2792;52.452;9.752;2024-01-15T09:10:18;5.33;;;2.40;;
5539;SDS011;2792;52.452;9.752;2024-01-15T09:12:45;3.00;;;1.90;;
5539;SDS011;2792;52.452;9.752;2024-01-15T09:15:13;2.20;;;1.90;;
5539;SDS011;2792;52.452;9.752;2024-01-15T09:17:39;5.23;;;2.47;;
5539;SDS011;2792;52.452;9.752;2024-01-15T09:20:06;5.07;;;2.27;;
5539;SDS011;2792;52.452;9.752;2024-01-15T09:22:33;6.73;;;2.23;;
5539;SDS011;2792;52.452;9.752;2024-01-15T09:25:00;7.07;;;2.17;;
5539;SDS011;2792;52.452;9.752;2024-01-15T09:27:26;2.83;;;2.00;;
5539;SDS011;2792;52.452;9.752;2024-01-15T09:29:53;13.03;;;2.10;;
5539;SDS011;2792;52.452;9.752;2024-01-15T09:32:21;5.80;;;2.60;;
5539;SDS011;2792;52.452;9.752;2024-01-15T09:34:48;3.47;;;2.07;;
5539;SDS011;2792;52.452;9.752;2024-01-15T09:37:14;4.40;;;1.80;;
5539;SDS011;2792;52.452;9.752;2024-01-15T09:39:40;3.40;;;1.90;;
5539;SDS011;2792;52.452;9.752;2024-01-15T09:42:06;5.40;;;2.03;;
5539;SDS011;2792;52.452;9.752;2024-01-15T09:44:34;6.03;;;2.43;;
5539;SDS011;2792;52.452;9.752;2024-01-15T09:47:01;3.27;;;1.80;;
5539;SDS011;2792;52.452;9.752;2024-01-15T09:49:28;2.37;;;1.83;;
5539;SDS011;2792;52.452;9.752;2024-01-15T09:51:55;7.00;;;1.73;;
5539;SDS011;2792;52.452;9.752;2024-01-15T09:54:23;4.20;;;1.97;;
5539;SDS011;2792;52.452;9.752;2024-01-15T09:56:50;3.33;;;1.80;;
5539;SDS011;2792;52.452;9.752;2024-01-15T09:59:17;6.67;;;1.90;;
5539;SDS011;2792;52.452;9.752;2024-01-15T10:01:45;2.60;;;1.57;;
5539;SDS011;2792;52.452;9.752;2024-01-15T10:04:13;2.03;;;1.70;;
5539;SDS011;2792;52.452;9.752;2024-01-15T10:06:41;1.83;;;1.30;;
5539;SDS011;2792;52.452;9.752;2024-01-15T10:09:12;4.80;;;1.90;;
5539;SDS011;2792;52.452;9.752;2024-01-15T10:11:39;3.67;;;1.90;;
5539;SDS011;2792;52.452;9.752;2024-01-15T10:14:06;3.57;;;2.50;;
5539;SDS011;2792;52.452;9.752;2024-01-15T10:16:32;6.03;;;2.03;;
5539;SDS011;2792;52.452;9.752;2024-01-15T10:18:59;1.83;;;1.53;;
5539;SDS011;2792;52.452;9.752;2024-01-15T10:21:25;3.17;;;1.60;;
5539;SDS011;2792;52.452;9.752;2024-01-15T10:23:54;1.77;;;1.63;;
5539;SDS011;2792;52.452;9.752;2024-01-15T10:26:24;1.83;;;1.70;;
5539;SDS011;2792;52.452;9.752;2024-01-15T10:28:51;3.60;;;1.40;;
5539;SDS011;2792;52.452;9.752;2024-01-15T10:31:18;1.90;;;1.80;;
5539;SDS011;2792;52.452;9.752;2024-01-15T10:33:46;7.70;;;1.77;;
5539;SDS011;2792;52.452;9.752;2024-01-15T10:36:13;4.77;;;1.77;;
5539;SDS011;2792;52.452;9.752;2024-01-15T10:38:40;3.63;;;2.33;;
5539;SDS011;2792;52.452;9.752;2024-01-15T10:41:07;5.50;;;2.03;;
5539;SDS011;2792;52.452;9.752;2024-01-15T10:43:34;2.13;;;1.80;;
5539;SDS011;2792;52.452;9.752;2024-01-15T10:46:00;4.30;;;1.80;;
5539;SDS011;2792;52.452;9.752;2024-01-15T10:48:27;6.13;;;2.47;;
5539;SDS011;2792;52.452;9.752;2024-01-15T10:50:56;4.50;;;2.00;;
5539;SDS011;2792;52.452;9.752;2024-01-15T10:53:22;5.30;;;1.87;;
5539;SDS011;2792;52.452;9.752;2024-01-15T10:55:50;6.10;;;2.40;;
5539;SDS011;2792;52.452;9.752;2024-01-15T10:58:18;4.13;;;1.90;;
5539;SDS011;2792;52.452;9.752;2024-01-15T11:00:44;3.93;;;2.40;;
5539;SDS011;2792;52.452;9.752;2024-01-15T11:03:11;3.27;;;2.00;;
5539;SDS011;2792;52.452;9.752;2024-01-15T11:05:38;4.93;;;1.60;;
5539;SDS011;2792;52.452;9.752;2024-01-15T11:08:05;3.87;;;1.73;;
5539;SDS011;2792;52.452;9.752;2024-01-15T11:10:38;2.37;;;1.70;;
5539;SDS011;2792;52.452;9.752;2024-01-15T11:13:08;5.10;;;1.60;;
5539;SDS011;2792;52.452;9.752;2024-01-15T11:18:26;3.43;;;1.80;;
5539;SDS011;2792;52.452;9.752;2024-01-15T11:23:47;6.07;;;1.70;;
5539;SDS011;2792;52.452;9.752;2024-01-15T11:26:30;5.30;;;1.70;;
5539;SDS011;2792;52.452;9.752;2024-01-15T11:29:01;7.27;;;2.23;;
5539;SDS011;2792;52.452;9.752;2024-01-15T11:34:49;5.17;;;1.40;;
5539;SDS011;2792;52.452;9.752;2024-01-15T11:37:16;5.73;;;1.77;;
5539;SDS011;2792;52.452;9.752;2024-01-15T11:39:43;2.70;;;1.30;;
5539;SDS011;2792;52.452;9.752;2024-01-15T11:42:11;5.17;;;1.30;;
5539;SDS011;2792;52.452;9.752;2024-01-15T11:44:38;7.17;;;2.10;;
5539;SDS011;2792;52.452;9.752;2024-01-15T11:47:07;6.20;;;2.77;;
5539;SDS011;2792;52.452;9.752;2024-01-15T11:49:42;3.67;;;1.40;;
5539;SDS011;2792;52.452;9.752;2024-01-15T11:52:25;3.63;;;1.27;;
5539;SDS011;2792;52.452;9.752;2024-01-15T11:54:53;4.07;;;1.30;;
5539;SDS011;2792;52.452;9.752;2024-01-15T11:57:25;2.17;;;1.63;;
5539;SDS011;2792;52.452;9.752;2024-01-15T11:59:58;3.57;;;1.67;;
5539;SDS011;2792;52.452;9.752;2024-01-15T12:02:26;5.13;;;1.57;;
5539;SDS011;2792;52.452;9.752;2024-01-15T12:04:52;2.83;;;1.50;;
5539;SDS011;2792;52.452;9.752;2024-01-15T12:07:19;6.30;;;1.40;;
5539;SDS011;2792;52.452;9.752;2024-01-15T12:09:45;6.63;;;1.83;;
5539;SDS011;2792;52.452;9.752;2024-01-15T12:12:15;4.13;;;1.50;;
5539;SDS011;2792;52.452;9.752;2024-01-15T12:14:47;6.37;;;1.77;;
5539;SDS011;2792;52.452;9.752;2024-01-15T12:17:14;7.10;;;2.10;;
5539;SDS011;2792;52.452;9.752;2024-01-15T12:19:41;2.60;;;2.00;;
5539;SDS011;2792;52.452;9.752;2024-01-15T12:22:09;3.60;;;1.60;;
5539;SDS011;2792;52.452;9.752;2024-01-15T12:24:36;5.70;;;1.53;;
5539;SDS011;2792;52.452;9.752;2024-01-15T12:27:02;1.30;;;1.23;;
5539;SDS011;2792;52.452;9.752;2024-01-15T12:29:30;11.47;;;1.80;;
5539;SDS011;2792;52.452;9.752;2024-01-15T12:31:57;5.93;;;1.60;;
5539;SDS011;2792;52.452;9.752;2024-01-15T12:34:23;6.23;;;1.67;;
5539;SDS011;2792;52.452;9.752;2024-01-15T12:36:51;1.37;;;1.00;;
5539;SDS011;2792;52.452;9.752;2024-01-15T12:39:18;6.30;;;1.70;;
5539;SDS011;2792;52.452;9.752;2024-01-15T12:41:46;1.30;;;1.20;;
5539;SDS011;2792;52.452;9.752;2024-01-15T12:44:13;2.43;;;1.30;;
5539;SDS011;2792;52.452;9.752;2024-01-15T12:46:39;8.20;;;1.40;;
5539;SDS011;2792;52.452;9.752;2024-01-15T12:49:07;4.60;;;1.83;;
5539;SDS011;2792;52.452;9.752;2024-01-15T12:51:34;5.93;;;1.50;;
5539;SDS011;2792;52.452;9.752;2024-01-15T12:54:04;3.23;;;1.23;;
5539;SDS011;2792;52.452;9.752;2024-01-15T12:56:30;5.87;;;1.30;;
5539;SDS011;2792;52.452;9.752;2024-01-15T12:58:57;8.00;;;1.47;;
5539;SDS011;2792;52.452;9.752;2024-01-15T13:01:24;4.47;;;1.80;;
5539;SDS011;2792;52.452;9.752;2024-01-15T13:03:50;4.03;;;1.40;;
5539;SDS011;2792;52.452;9.752;2024-01-15T13:06:17;2.03;;;1.20;;
5539;SDS011;2792;52.452;9.752;2024-01-15T13:08:43;3.20;;;1.40;;
5539;SDS011;2792;52.452;9.752;2024-01-15T13:11:12;8.63;;;2.10;;
5539;SDS011;2792;52.452;9.752;2024-01-15T13:13:39;5.67;;;1.47;;
5539;SDS011;2792;52.452;9.752;2024-01-15T13:16:05;2.93;;;1.93;;
5539;SDS011;2792;52.452;9.752;2024-01-15T13:18:33;1.53;;;1.30;;
5539;SDS011;2792;52.452;9.752;2024-01-15T13:20:59;3.97;;;1.30;;
5539;SDS011;2792;52.452;9.752;2024-01-15T13:23:27;3.47;;;1.40;;
5539;SDS011;2792;52.452;9.752;2024-01-15T13:25:54;5.83;;;1.87;;
5539;SDS011;2792;52.452;9.752;2024-01-15T13:28:22;5.20;;;1.83;;
5539;SDS011;2792;52.452;9.752;2024-01-15T13:30:48;2.43;;;1.23;;
5539;SDS011;2792;52.452;9.752;2024-01-15T13:33:15;4.63;;;1.50;;
5539;SDS011;2792;52.452;9.752;2024-01-15T13:35:41;5.80;;;2.17;;
5539;SDS011;2792;52.452;9.752;2024-01-15T13:38:08;1.40;;;1.30;;
5539;SDS011;2792;52.452;9.752;2024-01-15T13:40:36;2.70;;;1.43;;
5539;SDS011;2792;52.452;9.752;2024-01-15T13:43:02;5.20;;;1.47;;
5539;SDS011;2792;52.452;9.752;2024-01-15T13:45:34;3.20;;;1.47;;
5539;SDS011;2792;52.452;9.752;2024-01-15T13:48:02;3.57;;;1.40;;
5539;SDS011;2792;52.452;9.752;2024-01-15T13:50:30;4.93;;;1.30;;
5539;SDS011;2792;52.452;9.752;2024-01-15T13:52:57;1.00;;;0.90;;
5539;SDS011;2792;52.452;9.752;2024-01-15T13:55:24;4.00;;;1.50;;
5539;SDS011;2792;52.452;9.752;2024-01-15T13:57:50;7.20;;;2.00;;
5539;SDS011;2792;52.452;9.752;2024-01-15T14:00:17;4.20;;;1.50;;
5539;SDS011;2792;52.452;9.752;2024-01-15T14:02:46;6.03;;;1.73;;
5539;SDS011;2792;52.452;9.752;2024-01-15T14:05:12;2.90;;;1.20;;
5539;SDS011;2792;52.452;9.752;2024-01-15T14:07:39;4.40;;;1.50;;
5539;SDS011;2792;52.452;9.752;2024-01-15T14:10:06;4.70;;;1.50;;
5539;SDS011;2792;52.452;9.752;2024-01-15T14:12:34;1.77;;;1.50;;
5539;SDS011;2792;52.452;9.752;2024-01-15T14:15:01;10.07;;;1.90;;
5539;SDS011;2792;52.452;9.752;2024-01-15T14:17:28;6.37;;;2.30;;
5539;SDS011;2792;52.452;9.752;2024-01-15T14:19:56;2.37;;;2.10;;
5539;SDS011;2792;52.452;9.752;2024-01-15T14:22:23;5.53;;;1.90;;
5539;SDS011;2792;52.452;9.752;2024-01-15T14:24:49;2.70;;;1.83;;
5539;SDS011;2792;52.452;9.752;2024-01-15T14:27:16;4.60;;;1.47;;
5539;SDS011;2792;52.452;9.752;2024-01-15T14:29:42;2.60;;;1.50;;
5539;SDS011;2792;52.452;9.752;2024-01-15T14:32:11;7.13;;;1.87;;
5539;SDS011;2792;52.452;9.752;2024-01-15T14:34:38;9.20;;;1.93;;
5539;SDS011;2792;52.452;9.752;2024-01-15T14:37:05;1.80;;;1.70;;
5539;SDS011;2792;52.452;9.752;2024-01-15T14:39:32;8.13;;;1.63;;
5539;SDS011;2792;52.452;9.752;2024-01-15T14:41:59;2.60;;;1.70;;
5539;SDS011;2792;52.452;9.752;2024-01-15T14:44:26;6.23;;;2.10;;
5539;SDS011;2792;52.452;9.752;2024-01-15T14:46:53;6.13;;;1.87;;
5539;SDS011;2792;52.452;9.752;2024-01-15T14:49:20;3.73;;;2.13;;
5539;SDS011;2792;52.452;9.752;2024-01-15T14:51:47;7.00;;;2.57;;
5539;SDS011;2792;52.452;9.752;2024-01-15T14:54:15;4.10;;;1.90;;
5539;SDS011;2792;52.452;9.752;2024-01-15T14:56:42;2.80;;;1.87;;
5539;SDS011;2792;52.452;9.752;2024-01-15T14:59:08;4.40;;;1.73;;
5539;SDS011;2792;52.452;9.752;2024-01-15T15:01:35;2.20;;;2.00;;
5539;SDS011;2792;52.452;9.752;2024-01-15T15:04:01;3.20;;;2.20;;
5539;SDS011;2792;52.452;9.752;2024-01-15T15:06:28;5.03;;;1.57;;
5539;SDS011;2792;52.452;9.752;2024-01-15T15:08:55;4.83;;;2.33;;
5539;SDS011;2792;52.452;9.752;2024-01-15T15:11:25;4.83;;;2.30;;
5539;SDS011;2792;52.452;9.752;2024-01-15T15:13:52;6.90;;;2.67;;
5539;SDS011;2792;52.452;9.752;2024-01-15T15:16:20;4.70;;;2.47;;
5539;SDS011;2792;52.452;9.752;2024-01-15T15:18:46;2.30;;;2.10;;
5539;SDS011;2792;52.452;9.752;2024-01-15T15:21:13;3.87;;;2.60;;